Time;durP1;ratioP1;P1;durP2;ratioP2;P2;SDS_P1;SDS_P2;PMS_P1;PMS_P2;Temp;Humidity;BMP_temperature;BMP_pressure;BME280_temperature;BME280_humidity;BME280_pressure;Samples;Min_cycle;Max_cycle;Signal;HPM_P1;HPM_P2
2022/07/11 00:00:55;;;;;;;3.92;1.75;;;;;;;13.37;66.25;97283.05;1847615;77;25264;-77
2022/07/11 00:03:22;;;;;;;3.98;2.02;;;;;;;13.33;66.22;97282.14;1847795;77;28097;-77
2022/07/11 00:05:48;;;;;;;3.22;1.67;;;;;;;13.36;66.24;97282.74;1847534;77;26259;-78
2022/07/11 00:08:15;;;;;;;4.50;1.67;;;;;;;13.34;66.31;97284.33;1847599;77;25636;-78
2022/07/11 00:10:43;;;;;;;4.83;1.90;;;;;;;13.27;66.32;97285.80;1847745;77;25680;-78
2022/07/11 00:13:09;;;;;;;4.08;1.90;;;;;;;13.26;66.46;97280.08;1847696;77;25225;-79
2022/07/11 00:15:36;;;;;;;6.03;1.92;;;;;;;13.31;66.64;97280.19;1847652;77;27279;-79
2022/07/11 00:18:02;;;;;;;6.03;2.17;;;;;;;13.33;66.76;97282.67;1847628;77;25715;-79
2022/07/11 00:20:29;;;;;;;5.55;1.80;;;;;;;13.32;66.91;97286.44;1847399;77;25672;-79
2022/07/11 00:22:56;;;;;;;4.40;2.00;;;;;;;13.32;67.02;97284.55;1847622;77;26511;-77
2022/07/11 00:25:22;;;;;;;4.50;2.00;;;;;;;13.31;67.19;97282.90;1847873;77;25832;-79
2022/07/11 00:27:49;;;;;;;5.40;2.25;;;;;;;13.24;67.04;97278.13;1847901;77;27336;-79
2022/07/11 00:30:16;;;;;;;5.45;2.60;;;;;;;13.28;67.15;97284.71;1847783;77;25629;-77
2022/07/11 00:32:43;;;;;;;6.92;2.80;;;;;;;13.31;67.22;97283.42;1847811;77;25620;-79
2022/07/11 00:35:09;;;;;;;8.48;3.10;;;;;;;13.28;67.43;97280.64;1847902;77;25677;-79
2022/07/11 00:37:36;;;;;;;8.90;3.00;;;;;;;13.24;67.31;97282.19;1847851;77;25769;-78
2022/07/11 00:40:03;;;;;;;6.03;2.72;;;;;;;13.26;67.36;97276.01;1847949;77;27416;-79
2022/07/11 00:42:30;;;;;;;7.70;2.37;;;;;;;13.24;67.64;97282.19;1847707;77;25660;-77
2022/07/11 00:44:56;;;;;;;13.62;4.35;;;;;;;13.20;67.82;97286.41;1847934;77;25763;-78
2022/07/11 00:47:23;;;;;;;7.20;4.20;;;;;;;13.24;67.99;97282.71;1848033;77;25694;-78
2022/07/11 00:49:50;;;;;;;8.35;3.47;;;;;;;13.23;68.27;97285.95;1846599;77;25649;-78
2022/07/11 00:52:17;;;;;;;7.65;3.27;;;;;;;13.21;68.29;97290.77;1845125;77;28022;-78
2022/07/11 00:54:45;;;;;;;6.62;2.35;;;;;;;13.18;68.31;97287.69;1844739;77;25677;-79
2022/07/11 00:57:13;;;;;;;6.25;2.77;;;;;;;13.16;68.26;97286.55;1845043;77;25732;-77
2022/07/11 00:59:40;;;;;;;6.90;2.40;;;;;;;13.17;68.40;97286.03;1844865;77;26308;-78
2022/07/11 01:02:07;;;;;;;3.42;1.90;;;;;;;13.12;68.34;97279.94;1844846;77;25761;-76
2022/07/11 01:04:34;;;;;;;5.37;2.10;;;;;;;13.13;68.42;97287.53;1845013;77;27430;-78
2022/07/11 01:07:01;;;;;;;4.62;2.10;;;;;;;13.15;68.56;97288.17;1844813;77;25654;-78
2022/07/11 01:09:27;;;;;;;4.45;1.90;;;;;;;13.15;68.65;97288.17;1844912;77;25633;-77
2022/07/11 01:11:54;;;;;;;4.10;2.40;;;;;;;13.15;68.63;97289.00;1844528;77;25746;-77
2022/07/11 01:14:20;;;;;;;5.60;1.98;;;;;;;13.17;68.39;97288.21;1844946;77;25734;-78
2022/07/11 01:16:47;;;;;;;3.55;1.92;;;;;;;13.22;68.28;97288.89;1844812;77;27345;-77
2022/07/11 01:19:14;;;;;;;5.45;2.00;;;;;;;13.22;68.38;97288.36;1844846;77;26426;-77
2022/07/11 01:21:44;;;;;;;3.80;2.08;;;;;;;13.20;68.31;97291.83;1844906;77;25613;-78
2022/07/11 01:24:11;;;;;;;4.75;2.12;;;;;;;13.19;68.26;97287.45;1844868;77;25824;-77
2022/07/11 01:26:38;;;;;;;9.25;2.00;;;;;;;13.22;68.03;97292.42;1844892;77;25689;-77
2022/07/11 01:29:10;;;;;;;5.58;1.52;;;;;;;13.27;67.84;97286.33;1844837;77;27307;-77
2022/07/11 01:31:45;;;;;;;4.22;1.82;;;;;;;13.26;67.95;97280.08;1844824;77;25577;-79
2022/07/11 01:34:12;;;;;;;4.30;2.27;;;;;;;13.29;68.12;97285.54;1844998;77;25210;-77
2022/07/11 01:36:39;;;;;;;5.62;1.90;;;;;;;13.30;68.12;97283.95;1844765;77;25687;-78
2022/07/11 01:39:05;;;;;;;4.22;2.00;;;;;;;13.26;68.19;97286.02;1829914;77;25435;-78
2022/07/11 01:41:32;;;;;;;6.25;2.33;;;;;;;13.27;68.32;97284.44;1811774;79;27523;-78
2022/07/11 01:43:59;;;;;;;4.50;1.60;;;;;;;13.32;67.97;97283.20;1811591;79;25709;-78
2022/07/11 01:46:26;;;;;;;3.90;2.00;;;;;;;13.32;68.03;97287.27;1811690;79;25680;-77
2022/07/11 01:48:52;;;;;;;6.47;1.90;;;;;;;13.27;68.11;97278.19;1811664;79;25674;-77
2022/07/11 01:51:19;;;;;;;6.75;2.42;;;;;;;13.26;68.03;97278.72;1827008;78;25407;-80
2022/07/11 01:53:46;;;;;;;5.85;1.90;;;;;;;13.26;68.46;97277.36;1829503;78;27395;-77
2022/07/11 01:56:12;;;;;;;4.15;1.72;;;;;;;13.25;68.59;97273.52;1829363;78;25744;-78
2022/07/11 01:58:39;;;;;;;7.80;2.00;;;;;;;13.24;68.69;97272.70;1829756;78;25723;-78
2022/07/11 02:01:05;;;;;;;4.35;2.02;;;;;;;13.24;68.79;97268.63;1829574;78;25698;-77
2022/07/11 02:03:32;;;;;;;5.08;2.10;;;;;;;13.23;68.84;97279.17;1829627;78;25795;-78
2022/07/11 02:05:59;;;;;;;8.08;2.20;;;;;;;13.24;68.99;97274.05;1829701;78;27350;-78
2022/07/11 02:08:27;;;;;;;5.00;1.95;;;;;;;13.23;68.96;97274.28;1829078;78;26056;-77
2022/07/11 02:10:53;;;;;;;5.92;2.17;;;;;;;13.23;68.98;97276.99;1829589;78;25672;-77
2022/07/11 02:13:23;;;;;;;6.05;2.20;;;;;;;13.19;68.95;97276.62;1829760;78;25705;-78
2022/07/11 02:15:50;;;;;;;7.90;2.17;;;;;;;13.19;69.03;97273.91;1829476;78;25668;-77
2022/07/11 02:18:19;;;;;;;2.67;1.95;;;;;;;13.18;69.19;97273.61;1829652;78;27363;-79
2022/07/11 02:20:46;;;;;;;8.43;2.50;;;;;;;13.18;69.11;97271.42;1829455;78;25201;-78
2022/07/11 02:23:13;;;;;;;4.95;2.37;;;;;;;13.12;69.08;97270.45;1829420;78;26591;-77
2022/07/11 02:25:39;;;;;;;4.00;1.62;;;;;;;13.08;69.14;97269.25;1829684;78;26263;-77
2022/07/11 02:28:08;;;;;;;7.12;2.12;;;;;;;13.07;68.92;97268.94;1829625;78;25691;-78
2022/07/11 02:30:39;;;;;;;5.67;1.90;;;;;;;13.10;69.00;97269.02;1829585;78;27366;-77
2022/07/11 02:35:38;;;;;;;7.45;2.77;;;;;;;13.07;69.25;97267.59;1764509;81;25790;-79
2022/07/11 02:38:04;;;;;;;10.18;1.98;;;;;;;13.07;69.34;97271.66;1764623;81;25721;-79
2022/07/11 02:40:31;;;;;;;4.42;2.22;;;;;;;13.04;69.22;97274.81;1764549;81;25911;-77
2022/07/11 02:42:58;;;;;;;3.67;1.95;;;;;;;13.04;69.38;97269.39;1764370;81;27405;-78
2022/07/11 02:45:24;;;;;;;4.75;2.33;;;;;;;13.06;69.39;97274.06;1764361;81;25769;-78
2022/07/11 02:47:51;;;;;;;5.15;1.82;;;;;;;13.05;69.47;97272.41;1764586;81;25781;-79
2022/07/11 02:50:18;;;;;;;5.10;1.95;;;;;;;12.99;69.30;97276.05;1761422;81;25778;-79
2022/07/11 02:52:45;;;;;;;4.17;2.25;;;;;;;13.02;69.27;97274.77;1755618;81;25691;-78
2022/07/11 02:55:13;;;;;;;3.62;1.80;;;;;;;13.07;69.10;97273.01;1755855;81;27462;-79
2022/07/11 02:57:40;;;;;;;5.58;1.70;;;;;;;13.11;69.28;97278.80;1755834;81;25923;-79
2022/07/11 03:00:15;;;;;;;4.97;2.20;;;;;;;13.06;69.19;97267.81;1755747;81;25766;-77
2022/07/11 03:02:42;;;;;;;3.95;2.00;;;;;;;13.05;69.33;97279.18;1755727;81;25893;-79
2022/07/11 03:05:09;;;;;;;7.15;2.12;;;;;;;13.04;69.06;97273.46;1755768;80;25890;-78
2022/07/11 03:07:36;;;;;;;5.62;2.20;;;;;;;13.02;69.09;97278.31;1755821;81;27354;-78
2022/07/11 03:10:03;;;;;;;5.53;2.30;;;;;;;13.00;69.18;97277.70;1755393;81;25745;-77
2022/07/11 03:12:30;;;;;;;5.72;2.10;;;;;;;12.97;69.30;97272.74;1755795;81;25385;-79
2022/07/11 03:14:57;;;;;;;6.70;1.98;;;;;;;12.97;69.30;97278.98;1755769;81;26351;-77
2022/07/11 03:17:23;;;;;;;7.58;2.22;;;;;;;12.93;69.38;97275.07;1755904;81;25734;-76
2022/07/11 03:19:50;;;;;;;5.65;2.60;;;;;;;12.97;69.53;97271.39;1755858;81;27377;-77
2022/07/11 03:22:17;;;;;;;5.42;2.10;;;;;;;13.00;69.74;97280.42;1755805;81;25703;-79
2022/07/11 03:24:44;;;;;;;6.47;2.15;;;;;;;12.98;69.69;97283.88;1755889;81;25774;-77
2022/07/11 03:27:12;;;;;;;3.87;2.00;;;;;;;12.98;69.70;97279.29;1755589;81;53613;-77
2022/07/11 03:29:38;;;;;;;4.60;2.70;;;;;;;13.00;69.80;97283.12;1755886;81;25841;-77
2022/07/11 03:32:05;;;;;;;6.42;2.20;;;;;;;13.02;69.93;97283.73;1778825;78;27417;-79
2022/07/11 03:34:32;;;;;;;8.55;2.35;;;;;;;13.00;69.97;97279.06;1817323;78;25708;-78
2022/07/11 03:36:59;;;;;;;4.78;2.05;;;;;;;13.01;69.94;97287.49;1817264;78;26642;-78
2022/07/11 03:39:25;;;;;;;5.87;2.35;;;;;;;13.05;70.16;97285.13;1817393;78;26240;-78
2022/07/11 03:41:52;;;;;;;6.37;2.20;;;;;;;13.04;69.99;97284.86;1817418;78;25870;-78
2022/07/11 03:44:19;;;;;;;4.58;2.12;;;;;;;13.06;70.03;97286.25;1817325;78;28330;-78
2022/07/11 03:46:46;;;;;;;4.62;2.05;;;;;;;13.12;70.21;97284.00;1817251;78;25752;-77
2022/07/11 03:49:12;;;;;;;5.90;2.17;;;;;;;13.13;70.30;97285.66;1817289;78;25681;-78
2022/07/11 03:51:40;;;;;;;6.50;2.33;;;;;;;13.16;69.90;97285.20;1826057;78;26763;-78
2022/07/11 03:54:06;;;;;;;7.25;2.25;;;;;;;13.22;69.54;97289.72;1829525;78;25648;-77
2022/07/11 03:56:33;;;;;;;2.58;1.82;;;;;;;13.20;69.67;97289.11;1829471;78;27570;-77
2022/07/11 03:58:59;;;;;;;7.75;2.00;;;;;;;13.24;69.78;97294.38;1829322;77;25697;-77
2022/07/11 04:01:26;;;;;;;5.47;1.98;;;;;;;13.28;69.64;97295.55;1829584;78;25930;-77
2022/07/11 04:03:53;;;;;;;2.75;1.90;;;;;;;13.31;69.42;97297.81;1829387;77;25695;-77
2022/07/11 04:06:20;;;;;;;5.65;2.22;;;;;;;13.25;69.21;97294.68;1829332;78;25699;-77
2022/07/11 04:08:46;;;;;;;6.10;2.15;;;;;;;13.25;69.31;97294.68;1829157;78;28341;-78
2022/07/11 04:11:13;;;;;;;4.12;1.70;;;;;;;13.28;69.15;97302.33;1829442;78;25851;-78
2022/07/11 04:13:40;;;;;;;4.87;2.00;;;;;;;13.31;69.03;97304.59;1829458;78;25657;-79
2022/07/11 04:16:07;;;;;;;4.53;1.80;;;;;;;13.31;69.08;97304.59;1829409;78;25678;-78
2022/07/11 04:18:33;;;;;;;5.75;1.95;;;;;;;13.36;68.95;97299.02;1829546;78;25711;-78
2022/07/11 04:21:00;;;;;;;4.67;2.25;;;;;;;13.40;68.84;97298.86;1829559;78;28438;-78
2022/07/11 04:23:27;;;;;;;2.70;1.70;;;;;;;13.39;68.82;97298.55;1829451;78;25456;-79
2022/07/11 04:25:53;;;;;;;6.45;2.00;;;;;;;13.39;68.90;97294.48;1829436;78;25720;-79
2022/07/11 04:28:20;;;;;;;4.28;1.65;;;;;;;13.42;69.03;97300.78;1829403;78;25777;-78
2022/07/11 04:30:46;;;;;;;4.00;1.67;;;;;;;13.45;69.13;97299.80;1829403;78;25641;-77
2022/07/11 04:33:13;;;;;;;6.80;2.37;;;;;;;13.44;69.26;97298.14;1829457;78;28124;-78
2022/07/11 04:35:40;;;;;;;5.65;2.30;;;;;;;13.42;69.43;97294.83;1829042;78;25989;-77
2022/07/11 04:38:06;;;;;;;6.17;2.40;;;;;;;13.44;69.62;97298.67;1829527;77;25712;-77
2022/07/11 04:40:33;;;;;;;7.40;2.27;;;;;;;13.45;69.62;97294.91;1829130;78;25772;-78
2022/07/11 04:43:00;;;;;;;7.75;2.75;;;;;;;13.48;69.67;97302.58;1829456;78;25800;-79
2022/07/11 04:45:26;;;;;;;7.95;3.00;;;;;;;13.49;69.75;97311.02;1829571;78;28061;-78
2022/07/11 04:47:53;;;;;;;7.20;2.75;;;;;;;13.49;69.77;97311.02;1829420;78;25715;-78
2022/07/11 04:50:19;;;;;;;5.12;2.45;;;;;;;13.49;69.83;97315.91;1829263;77;25728;-78
2022/07/11 04:52:46;;;;;;;5.28;2.35;;;;;;;13.49;69.77;97313.73;1829072;78;25755;-78
2022/07/11 04:55:13;;;;;;;4.80;2.10;;;;;;;13.46;69.97;97313.66;1829568;77;25882;-77
2022/07/11 04:57:39;;;;;;;7.92;2.40;;;;;;;13.43;70.12;97314.64;1829503;78;28117;-77
2022/07/11 05:00:07;;;;;;;8.00;2.15;;;;;;;13.42;70.21;97318.41;1829361;77;25637;-78
2022/07/11 05:02:34;;;;;;;4.87;2.20;;;;;;;13.39;70.35;97321.60;1829405;77;26718;-79
2022/07/11 05:05:00;;;;;;;4.30;2.20;;;;;;;13.40;70.27;97323.26;1829501;78;25741;-77
2022/07/11 05:07:27;;;;;;;6.28;2.05;;;;;;;13.41;70.26;97324.88;1829147;78;25633;-76
2022/07/11 05:09:54;;;;;;;4.85;2.10;;;;;;;13.39;70.48;97329.73;1829472;78;27518;-79
2022/07/11 05:12:20;;;;;;;4.97;2.15;;;;;;;13.38;70.41;97323.48;1829492;78;25416;-76
2022/07/11 05:14:47;;;;;;;3.65;2.20;;;;;;;13.38;70.47;97319.95;1829521;78;25663;-76
2022/07/11 05:17:13;;;;;;;4.00;2.20;;;;;;;13.33;70.62;97322.81;1829567;78;25723;-79
2022/07/11 05:19:40;;;;;;;5.40;2.15;;;;;;;13.31;70.84;97328.98;1829597;78;26017;-77
2022/07/11 05:22:06;;;;;;;3.55;2.50;;;;;;;13.33;70.98;97326.88;1829638;78;27429;-78
2022/07/11 05:24:33;;;;;;;9.88;2.42;;;;;;;13.34;71.16;97336.66;1829454;78;25763;-80
2022/07/11 05:27:00;;;;;;;5.25;2.17;;;;;;;13.37;71.19;97329.13;1829766;78;25202;-79
2022/07/11 05:29:26;;;;;;;4.53;2.33;;;;;;;13.40;71.07;97332.75;1829588;78;25885;-78
2022/07/11 05:31:53;;;;;;;3.52;1.85;;;;;;;13.33;71.33;97330.11;1829880;78;25190;-78
2022/07/11 05:34:20;;;;;;;4.12;2.05;;;;;;;13.31;71.43;97337.12;1829678;78;27349;-79
2022/07/11 05:36:47;;;;;;;3.92;1.75;;;;;;;13.31;71.43;97333.58;1829411;78;25924;-78
2022/07/11 05:39:15;;;;;;;3.60;1.77;;;;;;;13.29;71.40;97333.80;1829461;78;25710;-78
2022/07/11 05:41:41;;;;;;;5.15;1.95;;;;;;;13.32;71.45;97337.95;1829606;78;26562;-79
2022/07/11 05:44:08;;;;;;;4.37;2.17;;;;;;;13.28;71.70;97336.77;1829612;78;25725;-77
2022/07/11 05:46:39;;;;;;;3.27;1.85;;;;;;;13.25;71.91;97342.12;1829552;78;27394;-78
2022/07/11 05:49:03;;;;;;;5.25;1.72;;;;;;;13.22;71.97;97342.57;1825463;78;25891;-78
2022/07/11 05:51:29;;;;;;;4.40;2.40;;;;;;;13.21;71.96;97332.78;1822202;78;25636;-76
2022/07/11 05:53:56;;;;;;;6.87;2.12;;;;;;;13.26;71.92;97342.95;1811762;79;25880;-77
2022/07/11 05:56:22;;;;;;;3.20;2.30;;;;;;;13.27;71.93;97334.59;1811923;78;25696;-76
2022/07/11 05:58:49;;;;;;;6.65;2.20;;;;;;;13.29;72.05;97339.23;1811942;79;27201;-76
2022/07/11 06:01:16;;;;;;;4.78;2.55;;;;;;;13.32;72.01;97344.20;1811831;79;25175;-76
2022/07/11 06:03:42;;;;;;;4.67;2.60;;;;;;;13.38;71.94;97342.98;1811974;79;25638;-76
2022/07/11 06:06:10;;;;;;;7.00;2.37;;;;;;;13.41;72.01;97346.58;1811850;78;26430;-76
2022/07/11 06:08:43;;;;;;;6.75;3.08;;;;;;;13.48;71.97;97345.97;1811490;79;25175;-76
2022/07/11 06:11:13;;;;;;;5.97;2.17;;;;;;;13.54;71.97;97346.38;1811673;79;27473;-76
2022/07/11 06:13:41;;;;;;;4.80;2.05;;;;;;;13.57;71.88;97341.86;1811860;79;25700;-75
2022/07/11 06:16:09;;;;;;;7.90;2.45;;;;;;;13.55;71.82;97341.26;1811448;79;25797;-77
2022/07/11 06:18:37;;;;;;;4.20;1.85;;;;;;;13.48;71.94;97348.15;1811772;79;25849;-75
2022/07/11 06:21:05;;;;;;;4.60;2.30;;;;;;;13.49;72.04;97343.55;1811837;79;25701;-75
2022/07/11 06:23:34;;;;;;;2.45;1.60;;;;;;;13.52;72.10;97351.23;1811895;79;26840;-75
2022/07/11 06:26:02;;;;;;;4.12;2.10;;;;;;;13.49;72.22;97341.67;1811787;79;26144;-75
2022/07/11 06:28:29;;;;;;;6.42;1.90;;;;;;;13.54;72.12;97341.78;1811733;79;25854;-74
2022/07/11 06:30:56;;;;;;;4.92;2.00;;;;;;;13.57;72.12;97349.99;1811885;79;26445;-75
2022/07/11 06:33:22;;;;;;;6.12;2.52;;;;;;;13.59;72.24;97343.81;1820285;77;25722;-76
2022/07/11 06:35:49;;;;;;;8.43;2.60;;;;;;;13.65;72.41;97348.30;1844674;77;27351;-75
2022/07/11 06:38:16;;;;;;;6.35;2.15;;;;;;;13.69;72.37;97352.20;1844760;77;25729;-75
2022/07/11 06:40:43;;;;;;;4.60;1.82;;;;;;;13.75;72.17;97351.82;1844900;77;25749;-75
2022/07/11 06:43:10;;;;;;;5.17;2.42;;;;;;;13.78;72.12;97348.09;1844954;77;25893;-75
2022/07/11 06:45:37;;;;;;;6.00;1.90;;;;;;;13.81;71.99;97344.09;1844806;77;25723;-75
2022/07/11 06:48:06;;;;;;;5.85;2.25;;;;;;;13.88;71.97;97341.59;1844870;77;27438;-75
2022/07/11 06:50:32;;;;;;;5.75;2.35;;;;;;;13.91;72.11;97334.84;1844762;77;25450;-74
2022/07/11 06:52:59;;;;;;;5.45;2.67;;;;;;;13.97;72.06;97331.20;1844594;77;25691;-74
2022/07/11 06:55:26;;;;;;;6.33;2.90;;;;;;;14.01;72.09;97338.63;1844876;77;25863;-74
2022/07/11 06:57:52;;;;;;;4.25;2.45;;;;;;;14.10;72.01;97334.23;1844997;77;25700;-74
2022/07/11 07:00:19;;;;;;;4.75;2.58;;;;;;;14.17;71.86;97339.00;1845000;77;27362;-74
2022/07/11 07:02:46;;;;;;;5.70;2.42;;;;;;;14.22;71.73;97335.06;1844765;77;25672;-74
2022/07/11 07:05:13;;;;;;;5.62;2.30;;;;;;;14.27;71.53;97336.52;1844530;77;25704;-75
2022/07/11 07:07:40;;;;;;;5.60;2.55;;;;;;;14.32;71.56;97332.58;1844844;77;25858;-75
2022/07/11 07:10:08;;;;;;;7.42;2.20;;;;;;;14.39;71.62;97335.98;1844534;77;25651;-74
2022/07/11 07:12:39;;;;;;;5.87;1.98;;;;;;;14.43;71.43;97330.41;1844812;77;27464;-74
2022/07/11 07:15:07;;;;;;;6.10;2.60;;;;;;;14.47;71.14;97331.59;1844766;77;26252;-74
2022/07/11 07:17:34;;;;;;;7.70;2.65;;;;;;;14.47;71.14;97334.31;1844901;77;25729;-75
2022/07/11 07:20:01;;;;;;;5.70;2.30;;;;;;;14.51;71.02;97333.28;1844824;77;25730;-74
2022/07/11 07:22:28;;;;;;;4.20;2.12;;;;;;;14.54;70.87;97340.44;1844854;77;25810;-74
2022/07/11 07:24:55;;;;;;;4.10;2.37;;;;;;;14.55;70.85;97343.45;1844820;77;27379;-74
2022/07/11 07:27:21;;;;;;;4.50;2.37;;;;;;;14.51;70.84;97342.27;1844728;77;25573;-74
2022/07/11 07:29:48;;;;;;;4.20;2.15;;;;;;;14.51;71.03;97340.08;1844961;77;25722;-74
2022/07/11 07:32:14;;;;;;;5.97;2.50;;;;;;;14.48;71.35;97338.69;1844746;77;25720;-74
2022/07/11 07:34:41;;;;;;;5.40;2.35;;;;;;;14.47;71.32;97351.14;1845044;77;25431;-74
2022/07/11 07:37:08;;;;;;;8.45;2.27;;;;;;;14.58;71.33;97344.87;1844928;77;27447;-74
2022/07/11 07:39:34;;;;;;;10.85;2.35;;;;;;;14.72;71.11;97346.27;1839173;77;25733;-74
2022/07/11 07:42:01;;;;;;;6.17;2.42;;;;;;;14.92;71.24;97339.07;1835597;77;25737;-74
2022/07/11 07:44:27;;;;;;;6.08;1.98;;;;;;;15.19;72.11;97337.98;1835658;77;25701;-74
2022/07/11 07:46:54;;;;;;;9.18;2.22;;;;;;;15.45;71.47;97329.25;1835917;77;25637;-75
2022/07/11 07:49:20;;;;;;;6.00;1.90;;;;;;;15.53;70.29;97321.22;1835789;78;27341;-76
2022/07/11 07:51:47;;;;;;;4.75;2.10;;;;;;;15.49;69.84;97324.95;1835416;77;25695;-76
2022/07/11 07:54:13;;;;;;;4.95;1.95;;;;;;;15.48;69.21;97328.20;1835500;78;25661;-75
2022/07/11 07:56:40;;;;;;;4.22;2.05;;;;;;;15.48;68.87;97317.32;1835908;78;25739;-74
2022/07/11 07:59:07;;;;;;;6.05;2.15;;;;;;;15.44;69.03;97320.80;1835559;77;25648;-76
2022/07/11 08:01:36;;;;;;;4.35;2.02;;;;;;;15.54;68.80;97325.59;1835800;77;27434;-75
2022/07/11 08:04:04;;;;;;;5.20;2.02;;;;;;;15.93;68.63;97322.48;1835625;78;25625;-75
2022/07/11 08:06:32;;;;;;;6.62;2.27;;;;;;;16.08;68.55;97319.98;1835691;78;26090;-75
2022/07/11 08:08:59;;;;;;;4.65;2.20;;;;;;;16.09;68.06;97308.85;1835632;78;26519;-75
2022/07/11 08:11:26;;;;;;;6.03;2.25;;;;;;;16.13;67.86;97307.30;1835331;77;25712;-75
2022/07/11 08:13:53;;;;;;;4.25;1.77;;;;;;;16.14;67.58;97306.22;1835661;77;27363;-76
2022/07/11 08:16:20;;;;;;;4.90;1.72;;;;;;;16.18;67.15;97312.80;1835794;77;25700;-76
2022/07/11 08:18:47;;;;;;;3.98;1.70;;;;;;;16.26;66.53;97308.84;1835657;78;25657;-75
2022/07/11 08:21:14;;;;;;;3.25;2.10;;;;;;;16.21;66.34;97305.50;1835605;78;25685;-75
2022/07/11 08:23:40;;;;;;;7.62;1.95;;;;;;;16.24;66.33;97310.16;1835731;77;25669;-75
2022/07/11 08:26:07;;;;;;;5.40;1.87;;;;;;;16.37;66.14;97299.75;1835669;77;27475;-76
2022/07/11 08:28:34;;;;;;;3.67;1.57;;;;;;;16.61;65.61;97304.97;1835462;78;25664;-77
2022/07/11 08:31:00;;;;;;;7.37;2.35;;;;;;;16.66;65.35;97296.38;1835658;77;25726;-76
2022/07/11 08:33:27;;;;;;;6.67;2.05;;;;;;;16.56;65.49;97288.00;1835699;78;25747;-75
2022/07/11 08:35:53;;;;;;;5.40;1.72;;;;;;;16.61;65.36;97288.09;1835791;78;25842;-76
2022/07/11 08:38:20;;;;;;;5.85;1.80;;;;;;;16.76;65.11;97297.04;1835696;77;27306;-76
2022/07/11 08:40:51;;;;;;;5.33;1.98;;;;;;;16.69;64.89;97301.30;1835386;78;25704;-76
2022/07/11 08:43:23;;;;;;;8.70;1.50;;;;;;;16.53;64.79;97296.71;1835823;77;26546;-75
2022/07/11 08:45:50;;;;;;;3.83;1.40;;;;;;;16.32;64.90;97299.66;1835901;78;25665;-76
2022/07/11 08:48:19;;;;;;;4.92;2.02;;;;;;;16.16;65.17;97290.47;1835903;77;25699;-75
2022/07/11 08:50:46;;;;;;;4.87;1.90;;;;;;;16.09;65.36;97289.80;1835841;78;27437;-77
2022/07/11 08:53:13;;;;;;;4.22;1.45;;;;;;;16.01;65.45;97297.03;1834008;77;25221;-79
2022/07/11 08:55:41;;;;;;;2.80;1.25;;;;;;;16.07;65.30;97297.38;1833837;78;25222;-77
2022/07/11 08:58:09;;;;;;;2.90;1.55;;;;;;;16.18;65.58;97296.46;1833675;77;25675;-76
2022/07/11 09:00:37;;;;;;;4.12;1.62;;;;;;;16.28;65.54;97294.98;1833742;78;25633;-77
2022/07/11 09:03:05;;;;;;;3.85;1.35;;;;;;;16.32;65.36;97283.86;1833668;78;27493;-77
2022/07/11 09:05:32;;;;;;;3.20;1.40;;;;;;;16.29;64.84;97293.38;1799734;79;25734;-78
2022/07/11 09:07:59;;;;;;;5.28;1.55;;;;;;;16.23;64.92;97294.89;1799718;78;25757;-79
2022/07/11 09:10:26;;;;;;;5.78;1.70;;;;;;;16.19;64.87;97287.22;1799626;79;25757;-78
2022/07/11 09:13:04;;;;;;;3.87;1.30;;;;;;;16.14;64.82;97291.25;1799538;79;25879;-77
2022/07/11 09:15:40;;;;;;;5.50;1.60;;;;;;;16.15;65.16;97298.34;1799778;79;27368;-78
2022/07/11 09:18:27;;;;;;;7.47;2.25;;;;;;;16.04;65.06;97289.73;1799625;79;26032;-78
2022/07/11 09:26:50;;;;;;;5.33;1.72;;;;;;;16.33;65.64;97273.25;1737845;81;25788;-77
2022/07/11 09:29:20;;;;;;;4.28;1.87;;;;;;;16.44;65.50;97269.59;1738011;82;27453;-77
2022/07/11 09:31:48;;;;;;;3.85;1.75;;;;;;;16.52;65.16;97271.36;1737717;81;25759;-77
2022/07/11 09:34:20;;;;;;;4.05;1.70;;;;;;;16.55;64.87;97272.19;1737946;82;25792;-77
2022/07/11 09:36:54;;;;;;;;;;;;;;;16.56;64.83;97269.76;1740389;82;25777;-77
2022/07/11 09:39:23;;;;;;;3.40;1.75;;;;;;;16.56;64.94;97271.13;1733364;82;25754;-77
2022/07/11 09:41:52;;;;;;;6.12;2.40;;;;;;;16.58;65.10;97264.88;1733226;82;28047;-77
2022/07/11 09:44:22;;;;;;;4.22;2.05;;;;;;;16.55;65.05;97261.83;1732937;81;25466;-77
2022/07/11 09:46:53;;;;;;;5.45;2.15;;;;;;;16.68;64.84;97252.48;1733242;82;25715;-77
2022/07/11 09:49:36;;;;;;;9.03;2.22;;;;;;;16.82;64.55;97253.22;1705895;82;25756;-77
2022/07/11 09:52:15;;;;;;;6.30;1.82;;;;;;;17.12;65.15;97253.30;1705932;83;25858;-77
2022/07/11 09:55:00;;;;;;;5.03;2.20;;;;;;;17.35;63.87;97247.52;1709572;82;27678;-78
2022/07/11 09:57:35;;;;;;;4.12;1.67;;;;;;;17.35;64.07;97240.70;1708115;83;25860;-77
2022/07/11 10:00:09;;;;;;;9.50;1.87;;;;;;;17.81;63.78;97242.48;1727045;83;25473;-77
2022/07/11 10:02:36;;;;;;;10.90;2.12;;;;;;;18.44;62.61;97240.17;1743885;81;26004;-78
2022/07/11 10:05:04;;;;;;;7.22;2.27;;;;;;;18.64;61.12;97240.84;1757142;81;25749;-78
2022/07/11 10:07:31;;;;;;;6.65;2.40;;;;;;;18.57;61.36;97240.24;1757082;81;27366;-78
2022/07/11 10:10:02;;;;;;;3.95;1.98;;;;;;;18.53;60.95;97236.38;1756859;81;25886;-78
2022/07/11 10:12:31;;;;;;;5.08;2.00;;;;;;;18.46;60.19;97242.65;1701086;84;25995;-78
2022/07/11 10:15:01;;;;;;;7.58;2.58;;;;;;;18.40;60.05;97243.69;1678737;85;26502;-77
2022/07/11 10:17:54;;;;;;;8.00;2.40;;;;;;;18.34;59.97;97242.31;1674709;85;25992;-77
2022/07/11 10:20:50;;;;;;;5.90;1.90;;;;;;;18.29;59.94;97244.19;1672557;85;27433;-76
2022/07/11 10:23:40;;;;;;;4.85;1.85;;;;;;;17.93;59.47;97248.59;1674794;85;25763;-76
2022/07/11 10:26:35;;;;;;;9.05;1.90;;;;;;;17.85;59.47;97255.37;1672947;85;25861;-76
2022/07/11 10:29:12;;;;;;;2.45;1.40;;;;;;;17.78;58.90;97266.20;1683162;84;26446;-77
2022/07/11 10:31:39;;;;;;;1.95;0.93;;;;;;;17.74;58.60;97271.39;1685940;84;25788;-77
2022/07/11 10:34:10;;;;;;;2.05;0.90;;;;;;;17.62;57.91;97279.72;1638605;87;27265;-77
2022/07/11 10:36:41;;;;;;;2.45;0.75;;;;;;;17.62;57.89;97270.16;1638545;87;25933;-76
2022/07/11 10:39:26;;;;;;;1.67;0.70;;;;;;;17.83;56.87;97273.91;1602264;89;25857;-76
2022/07/11 10:41:58;;;;;;;3.70;0.70;;;;;;;17.74;56.44;97283.67;1602281;88;25892;-76
2022/07/11 10:44:27;;;;;;;2.17;0.90;;;;;;;17.93;56.29;97275.89;1602595;88;25952;-75
2022/07/11 10:46:55;;;;;;;1.32;0.50;;;;;;;17.75;55.29;97270.27;1602263;89;27463;-76
2022/07/11 10:49:41;;;;;;;1.72;0.55;;;;;;;17.63;55.24;97270.45;1602067;89;25900;-77
2022/07/11 10:52:08;;;;;;;3.15;0.80;;;;;;;17.56;54.34;97273.09;1572425;90;25825;-76
2022/07/11 10:55:07;;;;;;;1.35;0.70;;;;;;;17.57;54.51;97279.66;1565030;91;26748;-77
2022/07/11 10:58:01;;;;;;;3.40;1.00;;;;;;;17.53;53.75;97283.97;1571115;91;25798;-79
2022/07/11 11:00:29;;;;;;;2.85;0.70;;;;;;;17.47;53.55;97280.93;1570909;91;28215;-77
2022/07/11 11:03:08;;;;;;;2.45;0.80;;;;;;;17.39;53.43;97279.22;1570862;89;25384;-77
2022/07/11 11:05:48;;;;;;;2.60;0.85;;;;;;;17.33;53.24;97275.59;1571431;91;25877;-77
2022/07/11 11:08:40;;;;;;;4.33;1.47;;;;;;;17.29;53.19;97277.19;1571257;91;25894;-77
2022/07/11 11:11:24;;;;;;;3.10;0.72;;;;;;;17.27;53.14;97272.52;1576279;89;26881;-77
2022/07/11 11:14:21;;;;;;;2.40;0.70;;;;;;;17.22;52.99;97282.03;1576079;91;27417;-77
2022/07/11 11:16:50;;;;;;;4.62;0.93;;;;;;;17.23;52.99;97280.95;1572956;89;25866;-76
2022/07/11 11:19:54;;;;;;;6.35;1.52;;;;;;;17.23;53.08;97284.51;1642133;87;26202;-76
2022/07/11 11:22:23;;;;;;;4.47;1.00;;;;;;;17.24;52.72;97281.23;1678674;85;26520;-76
2022/07/11 11:24:56;;;;;;;5.08;1.50;;;;;;;17.24;52.67;97273.06;1650333;86;25833;-76
2022/07/11 11:27:26;;;;;;;;;;;;;;;17.32;52.44;97271.77;1652905;86;27481;-77
2022/07/11 11:29:55;;;;;;;2.10;0.95;;;;;;;17.57;52.19;97272.83;1650143;86;25253;-77
2022/07/11 11:32:30;;;;;;;3.85;1.22;;;;;;;17.95;52.87;97264.17;1647478;86;25854;-76
2022/07/11 11:34:57;;;;;;;5.00;1.20;;;;;;;18.40;52.76;97258.18;1645452;85;26302;-77
2022/07/11 11:37:25;;;;;;;3.98;1.75;;;;;;;18.87;52.55;97266.91;1644013;86;25842;-77
2022/07/11 11:40:00;;;;;;;4.40;1.67;;;;;;;19.22;52.06;97268.94;1647494;85;27440;-77
2022/07/11 11:42:29;;;;;;;4.00;1.00;;;;;;;19.55;51.29;97278.09;1645590;85;25752;-77
2022/07/11 11:45:03;;;;;;;6.05;1.47;;;;;;;19.84;51.20;97269.33;1647522;85;25759;-78
2022/07/11 11:47:31;;;;;;;3.55;1.27;;;;;;;19.94;50.16;97252.89;1598121;86;26558;-78
2022/07/11 11:49:57;;;;;;;5.75;1.00;;;;;;;19.96;49.49;97257.55;1665655;86;26471;-78